createdAt,value
2023-04-01T00:01:14.991Z,9.10
2023-04-01T00:03:42.246Z,9.20
2023-04-01T00:06:13.787Z,9.20
2023-04-01T00:08:41.318Z,9.20
2023-04-01T00:11:08.087Z,9.20
2023-04-01T00:13:35.497Z,9.10
2023-04-01T00:16:04.022Z,9.10
2023-04-01T00:18:37.105Z,9.10
2023-04-01T00:21:04.469Z,9.20
2023-04-01T00:23:31.508Z,9.10
2023-04-01T00:26:01.877Z,9.10
2023-04-01T00:28:29.165Z,9.10
2023-04-01T00:30:56.080Z,9.10
2023-04-01T00:33:23.011Z,9.10
2023-04-01T00:35:50.184Z,9.10
2023-04-01T00:38:17.986Z,9.10
2023-04-01T00:40:46.698Z,9.10
2023-04-01T00:43:19.088Z,9.00
2023-04-01T00:45:47.916Z,9.10
2023-04-01T00:48:19.371Z,9.20
2023-04-01T00:50:52.058Z,9.00
2023-04-01T00:53:21.396Z,9.00
2023-04-01T00:55:58.565Z,9.00
2023-04-01T00:58:28.708Z,9.10
2023-04-01T01:00:57.846Z,9.10
2023-04-01T01:03:27.375Z,9.10
2023-04-01T01:06:12.759Z,9.10
2023-04-01T01:08:59.560Z,9.00
2023-04-01T01:11:43.251Z,9.00
2023-04-01T01:14:18.551Z,9.00
2023-04-01T01:16:52.557Z,8.90
2023-04-01T01:19:49.169Z,8.90
2023-04-01T01:22:37.637Z,9.00
2023-04-01T01:25:17.365Z,8.90
2023-04-01T01:27:53.831Z,8.80
2023-04-01T01:30:39.996Z,8.90
2023-04-01T01:33:12.099Z,8.90
2023-04-01T01:35:44.878Z,8.90
2023-04-01T01:38:16.939Z,8.90
2023-04-01T01:40:47.195Z,8.80
2023-04-01T01:43:18.613Z,8.80
2023-04-01T01:45:49.490Z,8.70
2023-04-01T01:48:18.517Z,8.70
2023-04-01T01:50:48.714Z,8.60
2023-04-01T01:53:15.949Z,8.60
2023-04-01T01:55:46.492Z,8.60
2023-04-01T01:58:30.868Z,8.70
2023-04-01T02:01:02.213Z,8.70
2023-04-01T02:03:32.829Z,8.70
2023-04-01T02:06:02.613Z,8.70
2023-04-01T02:08:43.578Z,8.60
2023-04-01T02:11:16.290Z,8.50
2023-04-01T02:13:50.695Z,8.50
2023-04-01T02:16:24.134Z,8.40
2023-04-01T02:18:55.373Z,8.40
2023-04-01T02:21:25.099Z,8.40
2023-04-01T02:23:55.034Z,8.40
2023-04-01T02:26:23.236Z,8.40
2023-04-01T02:28:53.835Z,8.40
2023-04-01T02:31:21.446Z,8.40
2023-04-01T02:33:49.400Z,8.40
2023-04-01T02:36:18.351Z,8.40
2023-04-01T02:38:47.782Z,8.30
2023-04-01T02:41:14.756Z,8.30
2023-04-01T02:43:41.653Z,8.30
2023-04-01T02:46:08.794Z,8.30
2023-04-01T02:48:35.990Z,8.20
2023-04-01T02:51:02.965Z,8.20
2023-04-01T02:53:29.848Z,8.30
2023-04-01T02:55:57.035Z,8.30
2023-04-01T02:58:23.933Z,8.40
2023-04-01T04:00:32.279Z,7.70
2023-04-01T04:03:00.099Z,7.80
2023-04-01T04:05:27.636Z,7.70
2023-04-01T04:07:54.946Z,7.60
2023-04-01T04:10:23.958Z,7.60
2023-04-01T04:12:51.179Z,7.50
2023-04-01T04:15:18.030Z,7.60
2023-04-01T04:17:46.884Z,7.50
2023-04-01T04:20:14.466Z,7.50
2023-04-01T04:22:41.552Z,7.50
2023-04-01T04:25:11.456Z,7.40
2023-04-01T04:27:38.295Z,7.60
2023-04-01T04:30:07.894Z,7.60
2023-04-01T04:32:34.702Z,7.70
2023-04-01T04:35:01.528Z,7.80
2023-04-01T04:37:29.341Z,7.80
2023-04-01T04:40:03.204Z,8.00
2023-04-01T04:42:30.088Z,8.00
2023-04-01T04:44:56.877Z,8.20
2023-04-01T04:47:24.081Z,8.10
2023-04-01T04:49:50.945Z,8.10
2023-04-01T04:52:18.121Z,8.00
2023-04-01T04:54:45.190Z,7.90
2023-04-01T04:57:14.452Z,7.90
2023-04-01T04:59:44.361Z,7.90
2023-04-01T05:02:11.353Z,7.80
2023-04-01T05:04:38.247Z,8.00
2023-04-01T05:07:05.364Z,8.00
2023-04-01T05:09:33.117Z,8.00
2023-04-01T05:12:00.945Z,8.20
2023-04-01T05:14:27.802Z,8.20
2023-04-01T05:16:55.541Z,8.20
2023-04-01T05:19:22.626Z,8.40
2023-04-01T05:21:50.545Z,8.30
2023-04-01T05:24:17.489Z,8.30
2023-04-01T05:26:44.492Z,8.60
2023-04-01T05:29:11.686Z,8.40
2023-04-01T05:31:38.634Z,8.40
2023-04-01T05:34:05.960Z,8.40
2023-04-01T05:36:33.242Z,8.50
2023-04-01T05:39:00.202Z,8.50
2023-04-01T05:41:26.988Z,8.60
2023-04-01T05:43:54.133Z,8.50
2023-04-01T05:46:22.439Z,8.60
2023-04-01T05:48:49.274Z,8.70
2023-04-01T05:51:16.540Z,8.60
2023-04-01T05:53:43.854Z,8.60
2023-04-01T05:56:10.966Z,8.60
2023-04-01T05:58:38.827Z,8.60
2023-04-01T06:01:11.544Z,8.70
2023-04-01T06:03:43.924Z,8.70
2023-04-01T06:06:26.679Z,8.80
2023-04-01T06:08:54.620Z,8.80
2023-04-01T06:11:52.092Z,8.70
2023-04-01T06:14:29.530Z,9.00
2023-04-01T06:17:05.227Z,9.00
2023-04-01T06:19:47.314Z,9.10
2023-04-01T06:22:32.685Z,9.10
2023-04-01T06:25:19.792Z,9.20
2023-04-01T06:28:08.891Z,9.30
2023-04-01T06:30:42.272Z,9.30
2023-04-01T06:33:25.699Z,9.30
2023-04-01T06:36:14.428Z,9.50
2023-04-01T06:39:12.248Z,9.50
2023-04-01T06:41:49.738Z,9.50
2023-04-01T06:44:35.173Z,9.60
2023-04-01T06:47:32.694Z,9.70
2023-04-01T06:50:28.909Z,9.80
2023-04-01T06:52:56.965Z,9.90
2023-04-01T06:55:25.698Z,10.00
2023-04-01T06:57:56.280Z,10.00
2023-04-01T07:00:23.133Z,10.10
2023-04-01T07:02:59.671Z,10.10
2023-04-01T07:05:31.989Z,10.20
2023-04-01T07:08:03.427Z,10.10
2023-04-01T07:10:48.197Z,10.20
2023-04-01T07:13:23.129Z,10.30
2023-04-01T07:16:02.165Z,10.10
2023-04-01T07:18:38.262Z,10.10
2023-04-01T07:21:06.315Z,10.00
2023-04-01T07:23:40.379Z,10.10
2023-04-01T07:26:22.297Z,10.10
2023-04-01T07:28:51.951Z,10.00
2023-04-01T07:31:32.133Z,10.00
2023-04-01T07:34:06.499Z,10.50
2023-04-01T07:36:54.827Z,10.00
2023-04-01T07:39:42.906Z,10.10
2023-04-01T07:42:33.012Z,10.20
2023-04-01T07:45:22.942Z,10.20
2023-04-01T07:48:05.290Z,10.20
2023-04-01T07:50:39.684Z,10.30
2023-04-01T07:53:29.668Z,10.40
2023-04-01T07:56:04.120Z,10.30
2023-04-01T07:58:53.576Z,10.30
2023-04-01T08:01:51.349Z,10.30
2023-04-01T08:04:48.989Z,10.30
2023-04-01T08:07:22.994Z,10.30
2023-04-01T08:10:03.450Z,10.80
2023-04-01T08:13:05.555Z,10.30
2023-04-01T08:15:50.500Z,10.40
2023-04-01T08:18:32.742Z,10.40
2023-04-01T08:21:02.839Z,10.50
2023-04-01T08:23:32.428Z,10.40
2023-04-01T08:26:07.384Z,10.50
2023-04-01T08:28:42.197Z,10.50
2023-04-01T08:31:19.779Z,10.80
2023-04-01T08:33:48.818Z,10.40
2023-04-01T08:36:20.251Z,10.30
2023-04-01T08:39:06.304Z,10.50
2023-04-01T08:41:53.884Z,10.40
2023-04-01T08:44:50.885Z,10.40
2023-04-01T08:47:33.891Z,10.30
2023-04-01T08:50:31.682Z,10.40
2023-04-01T08:53:07.448Z,10.50
2023-04-01T08:55:34.703Z,10.50
2023-04-01T08:58:22.027Z,10.50
2023-04-01T09:01:07.213Z,10.60
2023-04-01T09:03:53.096Z,10.70
2023-04-01T09:06:25.176Z,10.70
2023-04-01T09:09:08.405Z,10.70
2023-04-01T09:11:51.690Z,10.70
2023-04-01T09:14:38.583Z,10.70
2023-04-01T09:17:36.395Z,10.50
2023-04-01T09:20:34.359Z,10.20
2023-04-01T09:23:23.891Z,10.10
2023-04-01T09:26:07.146Z,9.90
2023-04-01T09:28:39.699Z,9.70
2023-04-01T09:31:22.052Z,9.60
2023-04-01T09:34:08.640Z,9.60
2023-04-01T09:36:46.924Z,9.60
2023-04-01T09:39:26.428Z,9.70
2023-04-01T09:42:24.117Z,9.70
2023-04-01T09:45:09.709Z,9.90
2023-04-01T09:47:51.659Z,10.20
2023-04-01T09:50:18.755Z,10.40
2023-04-01T09:53:08.298Z,10.50
2023-04-01T09:55:50.983Z,10.50
2023-04-01T09:58:45.000Z,10.70
2023-04-01T10:01:13.980Z,10.70
2023-04-01T10:03:56.085Z,10.70
2023-04-01T10:06:39.410Z,10.70
2023-04-01T10:09:22.617Z,10.40
2023-04-01T10:11:57.799Z,10.30
2023-04-01T10:14:55.330Z,10.00
2023-04-01T10:17:47.992Z,9.90
2023-04-01T10:20:32.545Z,9.90
2023-04-01T10:23:13.421Z,9.70
2023-04-01T10:25:58.976Z,9.90
2023-04-01T10:28:42.169Z,9.90
2023-04-01T10:31:25.564Z,9.80
2023-04-01T10:34:06.945Z,9.70
2023-04-01T10:36:57.960Z,9.60
2023-04-01T10:39:41.272Z,9.50
2023-04-01T10:42:14.745Z,9.50
2023-04-01T10:45:16.862Z,9.40
2023-04-01T10:47:50.320Z,9.50
2023-04-01T10:50:25.430Z,9.40
2023-04-01T10:53:23.529Z,9.50
2023-04-01T10:56:05.842Z,9.60
2023-04-01T10:58:51.182Z,9.50
2023-04-01T11:01:33.694Z,9.60
2023-04-01T11:04:11.327Z,9.70
2023-04-01T11:06:39.184Z,9.90
2023-04-01T11:09:41.224Z,9.90
2023-04-01T11:12:26.827Z,10.30
2023-04-01T11:15:07.602Z,10.60
2023-04-01T11:18:00.299Z,10.80
2023-04-01T11:20:52.537Z,11.10
2023-04-01T11:24:04.017Z,11.30
2023-04-01T11:26:38.821Z,11.40
2023-04-01T11:29:28.217Z,11.60
2023-04-01T11:32:07.919Z,12.10
2023-04-01T11:35:10.047Z,12.00
2023-04-01T11:37:55.736Z,12.00
2023-04-01T11:40:45.408Z,12.20
2023-04-01T11:43:37.192Z,12.10
2023-04-01T11:46:25.061Z,12.20
2023-04-01T11:49:00.444Z,12.40
2023-04-01T11:51:48.678Z,12.40
2023-04-01T11:54:18.888Z,12.30
2023-04-01T11:57:02.531Z,12.30
2023-04-01T11:59:49.902Z,11.80
2023-04-01T12:02:47.578Z,11.70
2023-04-01T12:05:42.243Z,11.80
2023-04-01T12:08:24.644Z,11.80
2023-04-01T12:11:16.830Z,11.90
2023-04-01T12:13:57.696Z,12.00
2023-04-01T12:16:28.964Z,12.40
2023-04-01T12:19:00.536Z,12.60
2023-04-01T12:21:39.078Z,12.60
2023-04-01T12:24:38.055Z,12.40
2023-04-01T12:27:32.768Z,12.10
2023-04-01T12:30:07.071Z,12.00
2023-04-01T12:32:41.361Z,12.10
2023-04-01T12:35:23.552Z,12.00
2023-04-01T12:38:06.562Z,11.70
2023-04-01T12:40:39.104Z,11.60
2023-04-01T12:43:10.122Z,11.40
2023-04-01T12:45:54.163Z,11.20
2023-04-01T12:48:44.569Z,11.40
2023-04-01T12:51:22.544Z,11.40
2023-04-01T12:54:01.203Z,11.50
2023-04-01T12:56:31.387Z,11.40
2023-04-01T12:59:12.005Z,11.30
2023-04-01T13:01:44.637Z,11.30
2023-04-01T13:04:27.613Z,11.20
2023-04-01T13:07:25.377Z,11.10
2023-04-01T13:10:17.099Z,11.20
2023-04-01T13:13:14.584Z,11.20
2023-04-01T13:15:57.808Z,11.00
2023-04-01T13:18:31.312Z,11.10
2023-04-01T13:21:18.130Z,11.00
2023-04-01T13:24:20.084Z,11.10
2023-04-01T13:26:50.709Z,11.20
2023-04-01T13:29:27.261Z,11.40
2023-04-01T13:32:33.295Z,11.30
2023-04-01T13:35:38.241Z,11.20
2023-04-01T13:38:37.046Z,11.30
2023-04-01T13:41:12.362Z,11.50
2023-04-01T13:43:58.330Z,11.70
2023-04-01T13:46:25.426Z,11.80
2023-04-01T13:49:15.919Z,11.70
2023-04-01T13:52:13.405Z,11.60
2023-04-01T13:55:11.228Z,11.50
2023-04-01T13:57:55.909Z,11.60
2023-04-01T14:00:53.694Z,11.80
2023-04-01T14:03:30.016Z,11.90
2023-04-01T14:06:12.254Z,12.20
2023-04-01T14:09:06.289Z,12.10
2023-04-01T14:11:34.177Z,12.20
2023-04-01T14:14:23.176Z,12.20
2023-04-01T14:17:08.781Z,12.20
2023-04-01T14:20:01.360Z,12.30
2023-04-01T14:22:45.360Z,12.40
2023-04-01T14:25:28.549Z,12.70
2023-04-01T14:28:20.389Z,12.30
2023-04-01T14:31:11.041Z,12.40
2023-04-01T14:33:54.550Z,12.30
2023-04-01T14:36:52.850Z,12.20
2023-04-01T14:39:38.168Z,12.00
2023-04-01T14:42:21.605Z,11.50
2023-04-01T14:45:20.220Z,11.40
2023-04-01T14:48:06.394Z,11.40
2023-04-01T14:50:46.761Z,11.40
2023-04-01T14:53:26.135Z,11.50
2023-04-01T14:55:58.471Z,11.50
2023-04-01T14:58:41.989Z,11.60
2023-04-01T15:01:29.871Z,11.50
2023-04-01T15:03:57.751Z,11.50
2023-04-01T15:06:41.009Z,11.40
2023-04-01T15:09:14.371Z,11.30
2023-04-01T15:11:43.230Z,11.40
2023-04-01T15:14:25.400Z,11.30
2023-04-01T15:17:00.350Z,11.30
2023-04-01T15:19:45.806Z,11.30
2023-04-01T15:22:29.808Z,11.30
2023-04-01T15:25:29.026Z,11.30
2023-04-01T15:28:06.011Z,11.20
2023-04-01T15:31:09.223Z,11.10
2023-04-01T15:33:36.256Z,11.10
2023-04-01T15:36:09.090Z,11.00
2023-04-01T15:38:42.786Z,11.00
2023-04-01T15:41:21.896Z,11.00
2023-04-01T15:43:51.063Z,10.90
2023-04-01T15:46:36.799Z,10.90
2023-04-01T15:49:26.380Z,10.80
2023-04-01T15:51:59.434Z,10.90
2023-04-01T15:54:42.640Z,10.80
2023-04-01T15:57:15.871Z,10.70
2023-04-01T15:59:51.126Z,10.70
2023-04-01T16:02:36.559Z,10.70
2023-04-01T16:05:07.071Z,10.70
2023-04-01T16:07:56.830Z,10.70
2023-04-01T16:10:35.096Z,10.60
2023-04-01T16:13:32.771Z,10.60
2023-04-01T16:16:07.825Z,10.60
2023-04-01T16:18:44.479Z,10.50
2023-04-01T16:21:15.774Z,10.50
2023-04-01T16:24:04.321Z,10.40
2023-04-01T16:26:50.128Z,10.40
2023-04-01T16:29:16.943Z,10.40
2023-04-01T16:32:15.129Z,10.40
2023-04-01T16:34:47.472Z,10.40
2023-04-01T16:37:16.846Z,10.40
2023-04-01T16:40:03.128Z,10.40
2023-04-01T16:42:43.034Z,10.30
2023-04-01T16:45:18.462Z,10.40
2023-04-01T16:47:51.827Z,10.40
2023-04-01T16:50:21.096Z,10.30
2023-04-01T16:53:01.962Z,10.30
2023-04-01T16:55:53.925Z,10.30
2023-04-01T16:58:35.812Z,10.30
2023-04-01T17:01:13.328Z,10.30
2023-04-01T17:03:47.427Z,10.20
2023-04-01T17:06:22.604Z,10.30
2023-04-01T17:09:20.169Z,10.30
2023-04-01T17:11:51.377Z,10.20
2023-04-01T17:14:24.809Z,10.20
2023-04-01T17:17:04.665Z,10.20
2023-04-01T17:19:38.301Z,10.20
2023-04-01T17:22:24.702Z,10.20
2023-04-01T17:25:22.205Z,10.20
2023-04-01T17:27:57.749Z,10.20
2023-04-01T17:30:32.839Z,10.10
2023-04-01T17:33:30.627Z,10.10
2023-04-01T17:36:00.630Z,10.10
2023-04-01T17:38:43.005Z,10.00
2023-04-01T17:41:16.853Z,10.10
2023-04-01T17:43:53.050Z,10.10
2023-04-01T17:46:36.195Z,10.00
2023-04-01T17:49:33.681Z,10.00
2023-04-01T17:52:14.924Z,10.00
2023-04-01T17:54:57.261Z,10.00
2023-04-01T17:57:43.153Z,9.90
2023-04-01T18:00:13.520Z,9.90
2023-04-01T18:02:52.344Z,10.00
2023-04-01T18:05:35.220Z,9.90
2023-04-01T18:08:12.789Z,9.90
2023-04-01T18:11:08.195Z,9.90
2023-04-01T18:13:57.901Z,9.80
2023-04-01T18:16:36.296Z,10.10
2023-04-01T18:19:25.996Z,9.90
2023-04-01T18:22:10.536Z,10.00
2023-04-01T18:24:46.024Z,9.90
2023-04-01T18:27:17.709Z,9.90
2023-04-01T18:29:53.001Z,10.00
2023-04-01T18:32:37.895Z,9.90
2023-04-01T18:35:23.825Z,9.90
2023-04-01T18:37:55.858Z,9.90
2023-04-01T18:40:39.213Z,9.80
2023-04-01T18:43:41.378Z,9.80
2023-04-01T18:46:20.741Z,9.70
2023-04-01T18:49:01.969Z,9.70
2023-04-01T18:51:49.909Z,9.60
2023-04-01T18:54:24.266Z,9.50
2023-04-01T18:56:51.798Z,9.40
2023-04-01T18:59:30.217Z,9.30
2023-04-01T19:02:21.315Z,9.20
2023-04-01T19:05:18.727Z,9.20
2023-04-01T19:07:49.230Z,9.00
2023-04-01T19:10:19.242Z,8.90
2023-04-01T19:13:01.792Z,8.90
2023-04-01T19:16:01.336Z,8.90
2023-04-01T19:18:41.275Z,8.80
2023-04-01T19:21:26.489Z,8.70
2023-04-01T19:24:06.043Z,8.60
2023-04-01T19:27:03.895Z,8.50
2023-04-01T19:29:53.751Z,8.50
2023-04-01T19:32:43.484Z,8.40
2023-04-01T19:35:18.602Z,8.30
2023-04-01T19:38:03.602Z,8.20
2023-04-01T19:40:41.736Z,8.10
2023-04-01T19:43:39.166Z,7.90
2023-04-01T19:46:10.825Z,7.80
2023-04-01T19:48:48.356Z,7.80
2023-04-01T19:51:26.447Z,7.80
2023-04-01T19:54:16.140Z,7.70
2023-04-01T19:56:52.474Z,7.70
2023-04-01T19:59:38.836Z,7.80
2023-04-01T20:02:09.031Z,7.70
2023-04-01T20:04:43.218Z,7.70
2023-04-01T20:07:20.013Z,7.70
2023-04-01T20:10:04.343Z,7.70
2023-04-01T20:12:50.390Z,7.70
2023-04-01T20:15:34.818Z,7.70
2023-04-01T20:18:05.283Z,7.70
2023-04-01T20:20:33.870Z,7.70
2023-04-01T20:23:02.900Z,7.60
2023-04-01T20:25:31.302Z,7.60
2023-04-01T20:28:10.700Z,7.70
2023-04-01T20:30:39.798Z,7.60
2023-04-01T20:33:17.701Z,7.60
2023-04-01T20:36:07.027Z,7.70
2023-04-01T20:38:50.047Z,7.70
2023-04-01T20:41:17.980Z,7.80
2023-04-01T20:43:54.978Z,7.80
2023-04-01T20:46:46.874Z,7.80
2023-04-01T20:49:34.635Z,7.80
2023-04-01T20:52:24.018Z,7.70
2023-04-01T20:55:20.774Z,7.70
2023-04-01T20:58:03.873Z,7.70
2023-04-01T21:00:49.674Z,7.60
2023-04-01T21:03:24.625Z,7.60
2023-04-01T21:06:10.503Z,7.60
2023-04-01T21:08:45.239Z,7.60
2023-04-01T21:11:21.719Z,7.70
2023-04-01T21:14:19.141Z,7.60
2023-04-01T21:17:01.476Z,7.70
2023-04-01T21:19:59.083Z,7.70
2023-04-01T21:22:27.933Z,7.70
2023-04-01T21:24:54.780Z,7.70
2023-04-01T21:27:44.020Z,7.70
2023-04-01T21:30:11.038Z,7.70
2023-04-01T21:32:44.212Z,7.70
2023-04-01T21:35:26.289Z,7.80
2023-04-01T21:38:28.102Z,7.80
2023-04-01T21:41:08.103Z,7.80
2023-04-01T21:43:45.485Z,7.80
2023-04-01T21:46:47.715Z,7.90
2023-04-01T21:49:39.806Z,7.90
2023-04-01T21:52:22.262Z,7.90
2023-04-01T21:55:11.359Z,7.90
2023-04-01T21:58:11.400Z,8.00
2023-04-01T22:01:09.055Z,8.10
2023-04-01T22:03:43.656Z,8.10
2023-04-01T22:06:13.881Z,8.10
2023-04-01T22:08:53.088Z,8.20
2023-04-01T22:11:25.063Z,8.30
2023-04-01T22:13:59.879Z,8.30
2023-04-01T22:16:48.048Z,8.30
2023-04-01T22:19:34.724Z,8.30
2023-04-01T22:22:23.496Z,8.30
2023-04-01T22:24:55.448Z,8.30
2023-04-01T22:27:34.928Z,8.20
2023-04-01T22:30:22.495Z,8.20
2023-04-01T22:32:54.050Z,8.20
2023-04-01T22:35:23.672Z,8.20
2023-04-01T22:38:16.495Z,8.20
2023-04-01T22:41:01.525Z,8.10
2023-04-01T22:43:39.500Z,8.10
2023-04-01T22:46:22.802Z,8.10
2023-04-01T22:48:58.934Z,8.00
2023-04-01T22:51:45.562Z,8.10
2023-04-01T22:54:22.202Z,8.10
2023-04-01T22:57:06.333Z,8.10
2023-04-01T22:59:39.232Z,8.10
2023-04-01T23:02:25.070Z,8.20
2023-04-01T23:04:59.316Z,8.10
2023-04-01T23:07:38.100Z,8.10
2023-04-01T23:10:13.643Z,8.10
2023-04-01T23:12:42.200Z,8.10
2023-04-01T23:15:14.878Z,8.10
2023-04-01T23:18:02.349Z,8.10
2023-04-01T23:20:49.073Z,8.10
2023-04-01T23:23:34.697Z,8.10
2023-04-01T23:26:16.693Z,8.10
2023-04-01T23:28:45.344Z,8.10
2023-04-01T23:31:27.529Z,8.10
2023-04-01T23:33:58.017Z,8.10
2023-04-01T23:36:25.551Z,8.10
2023-04-01T23:38:53.218Z,8.10
2023-04-01T23:41:25.712Z,8.10
2023-04-01T23:43:59.372Z,8.10
2023-04-01T23:46:27.675Z,8.10
2023-04-01T23:48:55.003Z,8.10
2023-04-01T23:51:25.958Z,8.10
2023-04-01T23:54:19.324Z,8.10
2023-04-01T23:56:49.719Z,8.10
2023-04-01T23:59:23.303Z,8.10
